createdAt,value
2023-04-30T00:00:42.448Z,100787.19
2023-04-30T00:03:10.882Z,100774.25
2023-04-30T00:05:39.838Z,100788.28
2023-04-30T00:08:08.233Z,100787.91
2023-04-30T00:10:36.591Z,100788.38
2023-04-30T00:13:06.399Z,100783.53
2023-04-30T00:15:34.709Z,100789.91
2023-04-30T00:18:03.228Z,100789.75
2023-04-30T00:20:31.584Z,100791.56
2023-04-30T00:23:00.026Z,100790.28
2023-04-30T00:25:28.449Z,100790.00
2023-04-30T00:27:57.006Z,100788.97
2023-04-30T00:30:26.785Z,100786.72
2023-04-30T00:32:55.186Z,100792.19
2023-04-30T00:35:23.599Z,100791.56
2023-04-30T00:37:52.053Z,100798.38
2023-04-30T00:40:21.688Z,100792.53
2023-04-30T00:42:52.463Z,100800.91
2023-04-30T00:45:22.118Z,100795.88
2023-04-30T00:47:52.278Z,100801.78
2023-04-30T00:50:21.237Z,100796.78
2023-04-30T00:52:49.928Z,100795.47
2023-04-30T00:55:19.092Z,100794.53
2023-04-30T00:57:48.050Z,100798.53
2023-04-30T01:00:17.130Z,100802.88
2023-04-30T01:02:47.387Z,100807.19
2023-04-30T01:05:17.197Z,100792.72
2023-04-30T01:07:46.513Z,100806.09
2023-04-30T01:10:16.479Z,100802.16
2023-04-30T01:12:54.511Z,100805.31
2023-04-30T01:15:29.992Z,100810.97
2023-04-30T01:18:07.520Z,100812.66
2023-04-30T01:20:45.686Z,100810.22
2023-04-30T01:23:23.840Z,100808.88
2023-04-30T01:26:07.686Z,100809.38
2023-04-30T01:28:39.261Z,100813.50
2023-04-30T01:31:14.937Z,100808.25
2023-04-30T01:33:43.333Z,100805.84
2023-04-30T01:36:45.554Z,100814.41
2023-04-30T01:39:32.915Z,100794.78
2023-04-30T01:42:09.414Z,100818.41
2023-04-30T01:44:58.239Z,100816.69
2023-04-30T01:47:35.421Z,100809.47
2023-04-30T01:50:16.233Z,100807.00
2023-04-30T01:52:51.967Z,100803.88
2023-04-30T01:55:29.024Z,100807.53
2023-04-30T01:58:00.849Z,100809.72
2023-04-30T02:00:31.691Z,100817.25
2023-04-30T02:03:01.222Z,100819.75
2023-04-30T02:05:31.194Z,100809.38
2023-04-30T02:07:59.645Z,100816.31
2023-04-30T02:10:30.402Z,100814.63
2023-04-30T02:12:58.942Z,100812.22
2023-04-30T02:15:28.543Z,100811.69
2023-04-30T02:17:58.468Z,100811.03
2023-04-30T02:20:26.855Z,100821.22
2023-04-30T02:22:55.174Z,100823.53
2023-04-30T02:25:23.605Z,100828.81
2023-04-30T02:27:51.993Z,100825.66
2023-04-30T02:30:20.997Z,100827.44
2023-04-30T02:32:49.403Z,100821.22
2023-04-30T02:35:19.254Z,100827.09
2023-04-30T02:37:47.720Z,100828.31
2023-04-30T02:40:16.372Z,100817.47
2023-04-30T02:42:44.743Z,100819.91
2023-04-30T02:45:13.194Z,100824.22
2023-04-30T02:47:41.986Z,100822.22
2023-04-30T02:50:11.272Z,100832.16
2023-04-30T02:52:41.108Z,100826.06
2023-04-30T02:55:10.477Z,100818.16
2023-04-30T02:57:39.066Z,100807.63
2023-04-30T03:00:09.300Z,100804.19
2023-04-30T03:02:38.277Z,100825.09
2023-04-30T03:05:07.721Z,100818.03
2023-04-30T03:07:36.960Z,100817.72
2023-04-30T03:10:08.674Z,100828.09
2023-04-30T03:12:37.100Z,100822.63
2023-04-30T03:15:07.191Z,100834.66
2023-04-30T03:17:35.612Z,100835.97
2023-04-30T03:20:04.091Z,100838.44
2023-04-30T03:22:32.500Z,100836.78
2023-04-30T03:25:00.962Z,100831.69
2023-04-30T03:27:30.921Z,100814.91
2023-04-30T03:29:59.424Z,100841.59
2023-04-30T03:32:27.821Z,100846.38
2023-04-30T03:34:56.517Z,100846.88
2023-04-30T03:37:25.660Z,100843.94
2023-04-30T03:39:54.342Z,100837.03
2023-04-30T03:42:22.862Z,100836.84
2023-04-30T03:44:52.567Z,100841.44
2023-04-30T03:47:20.957Z,100835.72
2023-04-30T03:49:55.317Z,100839.31
2023-04-30T03:52:24.631Z,100828.13
2023-04-30T03:54:52.954Z,100828.63
2023-04-30T03:57:22.294Z,100832.41
2023-04-30T03:59:53.929Z,100835.34
2023-04-30T04:02:23.042Z,100833.72
2023-04-30T04:04:52.628Z,100833.41
2023-04-30T04:07:21.352Z,100845.91
2023-04-30T04:09:50.056Z,100833.88
2023-04-30T04:12:18.462Z,100837.84
2023-04-30T04:14:46.867Z,100841.63
2023-04-30T04:17:16.644Z,100841.81
2023-04-30T04:19:46.508Z,100841.28
2023-04-30T04:22:15.645Z,100838.97
2023-04-30T04:24:44.451Z,100842.94
2023-04-30T04:27:16.437Z,100851.16
2023-04-30T04:29:45.228Z,100853.47
2023-04-30T04:32:14.659Z,100850.00
2023-04-30T04:34:45.902Z,100857.91
2023-04-30T04:37:14.326Z,100860.06
2023-04-30T04:39:42.691Z,100864.63
2023-04-30T04:42:11.643Z,100865.81
2023-04-30T04:44:41.353Z,100863.97
2023-04-30T04:47:10.279Z,100868.59
2023-04-30T04:49:38.690Z,100867.41
2023-04-30T04:52:08.510Z,100866.75
2023-04-30T04:54:36.868Z,100870.25
2023-04-30T04:57:05.371Z,100870.56
2023-04-30T04:59:33.752Z,100871.53
2023-04-30T05:02:02.198Z,100877.00
2023-04-30T05:04:30.621Z,100878.53
2023-04-30T05:06:59.092Z,100879.19
2023-04-30T05:09:28.879Z,100879.00
2023-04-30T05:11:57.289Z,100874.19
2023-04-30T05:14:25.692Z,100881.28
2023-04-30T05:16:54.003Z,100865.22
2023-04-30T05:19:22.474Z,100869.94
2023-04-30T05:21:51.376Z,100870.22
2023-04-30T05:24:19.737Z,100868.25
2023-04-30T05:26:49.479Z,100871.22
2023-04-30T05:29:17.969Z,100875.97
2023-04-30T05:31:46.418Z,100880.72
2023-04-30T05:34:14.931Z,100875.69
2023-04-30T05:36:44.380Z,100879.03
2023-04-30T05:39:12.887Z,100883.19
2023-04-30T05:41:41.346Z,100876.16
2023-04-30T05:44:11.147Z,100878.84
2023-04-30T05:46:39.598Z,100875.78
2023-04-30T05:49:07.886Z,100883.81
2023-04-30T05:51:36.390Z,100879.69
2023-04-30T05:54:04.958Z,100882.06
2023-04-30T05:56:35.168Z,100892.16
2023-04-30T05:59:03.543Z,100891.19
2023-04-30T06:01:33.857Z,100883.44
2023-04-30T06:04:04.023Z,100885.28
2023-04-30T06:06:32.551Z,100895.44
2023-04-30T06:09:01.029Z,100885.84
2023-04-30T06:11:29.415Z,100893.94
2023-04-30T06:13:57.911Z,100894.03
2023-04-30T06:16:26.479Z,100889.56
2023-04-30T06:18:56.333Z,100884.97
2023-04-30T06:21:26.125Z,100879.38
2023-04-30T06:23:54.569Z,100884.75
2023-04-30T06:26:22.942Z,100879.94
2023-04-30T06:28:51.279Z,100881.72
2023-04-30T06:31:19.730Z,100886.41
2023-04-30T06:33:48.236Z,100874.31
2023-04-30T06:36:18.707Z,100875.63
2023-04-30T06:38:48.100Z,100877.19
2023-04-30T06:41:17.094Z,100871.28
2023-04-30T06:43:45.698Z,100885.03
2023-04-30T06:46:15.246Z,100882.38
2023-04-30T06:48:43.688Z,100879.63
2023-04-30T06:51:12.030Z,100880.47
2023-04-30T06:53:41.839Z,100882.56
2023-04-30T06:56:10.317Z,100859.09
2023-04-30T06:58:38.749Z,100867.66
2023-04-30T07:01:07.216Z,100882.38
2023-04-30T07:03:36.490Z,100868.41
2023-04-30T07:06:05.368Z,100865.41
2023-04-30T07:08:33.834Z,100882.22
2023-04-30T07:11:03.985Z,100874.84
2023-04-30T07:13:32.372Z,100868.59
2023-04-30T07:16:00.934Z,100873.31
2023-04-30T07:18:29.342Z,100877.69
2023-04-30T07:20:57.647Z,100874.22
2023-04-30T07:23:26.862Z,100874.41
2023-04-30T07:25:56.734Z,100870.19
2023-04-30T07:28:26.407Z,100864.44
2023-04-30T07:30:54.753Z,100855.81
2023-04-30T07:33:23.301Z,100872.66
2023-04-30T07:35:51.655Z,100863.84
2023-04-30T07:38:20.001Z,100871.81
2023-04-30T07:40:48.331Z,100878.16
2023-04-30T07:43:16.635Z,100866.06
2023-04-30T07:45:46.629Z,100876.50
2023-04-30T07:48:14.933Z,100874.66
2023-04-30T07:50:43.211Z,100873.41
2023-04-30T07:53:11.512Z,100872.72
2023-04-30T07:55:39.827Z,100869.09
2023-04-30T07:58:08.152Z,100879.31
2023-04-30T08:00:36.532Z,100879.28
2023-04-30T08:03:06.479Z,100881.88
2023-04-30T08:05:35.092Z,100874.69
2023-04-30T08:08:03.848Z,100867.59
2023-04-30T08:10:33.337Z,100858.53
2023-04-30T08:13:01.718Z,100874.94
2023-04-30T08:15:30.671Z,100872.03
2023-04-30T08:17:59.109Z,100875.25
2023-04-30T08:20:28.852Z,100872.47
2023-04-30T08:22:57.274Z,100868.53
2023-04-30T08:25:25.755Z,100872.47
2023-04-30T08:27:54.134Z,100863.75
2023-04-30T08:30:22.579Z,100868.31
2023-04-30T08:32:51.278Z,100874.81
2023-04-30T08:35:19.659Z,100880.84
2023-04-30T08:37:52.086Z,100869.25
2023-04-30T08:40:21.020Z,100870.84
2023-04-30T08:43:01.845Z,100864.97
2023-04-30T08:45:30.413Z,100859.84
2023-04-30T08:48:01.140Z,100855.16
2023-04-30T08:50:29.989Z,100858.75
2023-04-30T08:53:00.580Z,100867.06
2023-04-30T08:55:29.382Z,100861.03
2023-04-30T08:57:57.805Z,100856.19
2023-04-30T09:00:26.874Z,100867.69
2023-04-30T09:02:55.796Z,100862.13
2023-04-30T09:05:24.334Z,100846.69
2023-04-30T09:08:03.145Z,100853.59
2023-04-30T09:10:36.375Z,100849.19
2023-04-30T09:13:09.471Z,100855.69
2023-04-30T09:15:41.214Z,100857.25
2023-04-30T09:18:12.699Z,100840.00
2023-04-30T09:20:57.087Z,100843.50
2023-04-30T09:23:26.289Z,100847.84
2023-04-30T09:25:56.613Z,100849.22
2023-04-30T09:28:26.516Z,100843.91
2023-04-30T09:30:56.833Z,100840.47
2023-04-30T09:33:25.320Z,100841.78
2023-04-30T09:35:53.706Z,100838.31
2023-04-30T09:38:30.765Z,100836.91
2023-04-30T09:41:02.730Z,100841.63
2023-04-30T09:43:31.960Z,100827.38
2023-04-30T09:46:01.173Z,100825.72
2023-04-30T09:48:29.933Z,100825.97
2023-04-30T09:50:58.490Z,100823.28
2023-04-30T09:53:29.231Z,100825.34
2023-04-30T09:56:04.350Z,100823.16
2023-04-30T09:58:37.134Z,100801.84
2023-04-30T10:01:07.988Z,100816.16
2023-04-30T10:03:37.176Z,100818.16
2023-04-30T10:06:05.979Z,100814.53
2023-04-30T10:08:42.275Z,100813.91
2023-04-30T10:11:18.064Z,100807.03
2023-04-30T10:13:53.880Z,100799.31
2023-04-30T10:16:39.968Z,100803.00
2023-04-30T10:19:15.631Z,100797.53
2023-04-30T10:21:47.104Z,100797.16
2023-04-30T10:24:19.463Z,100788.34
2023-04-30T10:26:50.313Z,100780.44
2023-04-30T10:29:19.526Z,100768.22
2023-04-30T10:31:50.754Z,100777.41
2023-04-30T10:34:33.182Z,100781.59
2023-04-30T10:37:08.127Z,100771.69
2023-04-30T10:39:38.938Z,100765.75
2023-04-30T10:42:11.484Z,100766.78
2023-04-30T10:44:40.600Z,100756.41
2023-04-30T10:47:09.509Z,100743.41
2023-04-30T10:49:37.972Z,100751.06
2023-04-30T10:52:07.191Z,100749.44
2023-04-30T10:54:38.348Z,100746.19
2023-04-30T10:57:17.669Z,100744.78
2023-04-30T10:59:53.759Z,100729.25
2023-04-30T11:02:22.822Z,100740.34
2023-04-30T11:05:11.675Z,100735.94
2023-04-30T11:07:51.725Z,100741.41
2023-04-30T11:10:24.031Z,100735.94
2023-04-30T11:12:56.287Z,100735.69
2023-04-30T11:15:28.022Z,100731.59
2023-04-30T11:17:59.838Z,100732.94
2023-04-30T11:20:29.199Z,100729.63
2023-04-30T11:23:11.730Z,100722.09
2023-04-30T11:25:46.021Z,100706.38
2023-04-30T11:28:18.915Z,100715.19
2023-04-30T11:30:53.884Z,100717.53
2023-04-30T11:33:23.811Z,100715.25
2023-04-30T11:35:53.435Z,100704.94
2023-04-30T11:38:23.710Z,100698.88
2023-04-30T11:40:54.189Z,100700.09
2023-04-30T11:43:26.117Z,100695.06
2023-04-30T11:46:09.337Z,100699.13
2023-04-30T11:48:39.932Z,100700.38
2023-04-30T11:51:17.324Z,100686.78
2023-04-30T11:53:48.913Z,100699.84
2023-04-30T11:56:20.565Z,100692.50
2023-04-30T11:58:52.317Z,100688.28
2023-04-30T12:01:21.928Z,100688.16
2023-04-30T12:03:53.240Z,100690.25
2023-04-30T12:06:27.579Z,100677.44
2023-04-30T12:08:57.415Z,100680.81
2023-04-30T12:11:28.180Z,100678.16
2023-04-30T12:14:03.351Z,100671.31
2023-04-30T12:16:42.129Z,100670.13
2023-04-30T12:19:10.683Z,100669.81
2023-04-30T12:21:40.213Z,100665.47
2023-04-30T12:24:08.579Z,100668.28
2023-04-30T12:26:39.377Z,100670.03
2023-04-30T12:29:13.422Z,100678.75
2023-04-30T12:31:44.697Z,100658.53
2023-04-30T12:34:17.173Z,100653.25
2023-04-30T12:36:45.577Z,100664.66
2023-04-30T12:39:16.214Z,100655.25
2023-04-30T12:41:47.390Z,100648.84
2023-04-30T12:44:19.151Z,100651.75
2023-04-30T12:46:48.356Z,100651.97
2023-04-30T12:49:27.248Z,100646.88
2023-04-30T12:52:01.547Z,100651.97
2023-04-30T12:54:33.563Z,100644.31
2023-04-30T12:57:04.039Z,100643.03
2023-04-30T12:59:35.940Z,100638.00
2023-04-30T13:02:11.958Z,100640.13
2023-04-30T13:04:41.114Z,100631.03
2023-04-30T13:07:09.740Z,100628.13
2023-04-30T13:09:39.213Z,100623.94
2023-04-30T13:12:07.851Z,100621.03
2023-04-30T13:14:37.656Z,100619.72
2023-04-30T13:17:07.366Z,100615.09
2023-04-30T13:19:35.814Z,100612.16
2023-04-30T13:22:04.277Z,100609.88
2023-04-30T13:24:32.697Z,100608.00
2023-04-30T13:27:02.721Z,100605.91
2023-04-30T13:29:31.908Z,100602.88
2023-04-30T13:32:01.731Z,100590.44
2023-04-30T13:34:30.121Z,100603.03
2023-04-30T13:36:58.476Z,100599.28
2023-04-30T13:39:26.818Z,100594.88
2023-04-30T13:41:55.224Z,100583.59
2023-04-30T13:44:23.516Z,100592.19
2023-04-30T13:46:51.924Z,100590.75
2023-04-30T13:49:21.671Z,100583.78
2023-04-30T13:51:50.031Z,100582.50
2023-04-30T13:54:18.367Z,100584.72
2023-04-30T13:56:46.877Z,100584.16
2023-04-30T13:59:16.032Z,100583.81
2023-04-30T14:01:44.559Z,100581.25
2023-04-30T14:04:15.200Z,100581.59
2023-04-30T14:06:45.711Z,100566.94
2023-04-30T14:09:14.151Z,100577.25
2023-04-30T14:11:43.111Z,100577.94
2023-04-30T14:14:11.536Z,100567.97
2023-04-30T14:16:40.137Z,100572.13
2023-04-30T14:19:08.548Z,100566.38
2023-04-30T14:21:36.899Z,100563.22
2023-04-30T14:24:07.762Z,100564.16
2023-04-30T14:26:36.240Z,100561.03
2023-04-30T14:29:04.634Z,100560.41
2023-04-30T14:31:33.164Z,100560.78
2023-04-30T14:34:01.646Z,100560.91
2023-04-30T14:36:30.234Z,100553.22
2023-04-30T14:38:58.637Z,100552.53
2023-04-30T14:41:28.464Z,100549.28
2023-04-30T14:43:56.837Z,100550.09
2023-04-30T14:46:25.251Z,100553.44
2023-04-30T14:48:54.182Z,100537.13
2023-04-30T14:51:22.571Z,100542.75
2023-04-30T14:53:50.933Z,100537.59
2023-04-30T14:56:19.306Z,100538.91
2023-04-30T14:58:49.059Z,100531.81
2023-04-30T15:01:18.172Z,100535.06
2023-04-30T15:03:47.052Z,100527.28
2023-04-30T15:06:15.815Z,100541.38
2023-04-30T15:08:44.294Z,100530.91
2023-04-30T15:11:13.265Z,100531.06
2023-04-30T15:13:41.766Z,100528.63
2023-04-30T15:16:12.641Z,100522.97
2023-04-30T15:18:41.484Z,100518.66
2023-04-30T15:21:09.901Z,100523.47
2023-04-30T15:23:38.250Z,100522.16
2023-04-30T15:26:07.234Z,100521.66
2023-04-30T15:28:36.004Z,100510.88
2023-04-30T15:31:06.450Z,100513.88
2023-04-30T15:33:39.661Z,100505.16
2023-04-30T15:36:08.515Z,100513.19
2023-04-30T15:38:37.290Z,100511.56
2023-04-30T15:41:05.954Z,100512.81
2023-04-30T15:43:34.558Z,100510.75
2023-04-30T15:46:03.399Z,100507.41
2023-04-30T15:48:31.845Z,100493.56
2023-04-30T15:51:01.674Z,100506.16
2023-04-30T15:53:29.997Z,100496.59
2023-04-30T15:55:58.471Z,100500.44
2023-04-30T15:58:26.856Z,100496.56
2023-04-30T16:00:55.214Z,100485.78
2023-04-30T16:03:23.715Z,100491.69
2023-04-30T16:05:52.573Z,100495.06
2023-04-30T16:08:22.368Z,100490.81
2023-04-30T16:10:50.812Z,100488.31
2023-04-30T16:13:19.225Z,100487.75
2023-04-30T16:15:47.807Z,100476.38
2023-04-30T16:18:16.663Z,100483.34
2023-04-30T16:20:48.626Z,100480.91
2023-04-30T16:23:17.337Z,100467.16
2023-04-30T16:25:47.033Z,100482.25
2023-04-30T16:28:15.880Z,100482.25
2023-04-30T16:30:44.316Z,100483.31
2023-04-30T16:33:12.783Z,100477.84
2023-04-30T16:35:41.172Z,100475.63
2023-04-30T16:38:09.565Z,100479.50
2023-04-30T16:40:38.001Z,100481.91
2023-04-30T16:43:08.007Z,100475.75
2023-04-30T16:45:36.833Z,100474.84
2023-04-30T16:48:06.028Z,100475.63
2023-04-30T16:50:34.540Z,100461.56
2023-04-30T16:53:03.044Z,100463.31
2023-04-30T16:55:31.752Z,100468.09
2023-04-30T16:58:00.160Z,100466.69
2023-04-30T17:00:30.513Z,100442.50
2023-04-30T17:02:58.977Z,100456.91
2023-04-30T17:05:27.499Z,100446.19
2023-04-30T17:07:55.854Z,100451.53
2023-04-30T17:10:25.566Z,100458.41
2023-04-30T17:12:53.891Z,100455.63
2023-04-30T17:15:22.358Z,100447.59
2023-04-30T17:17:52.367Z,100455.28
2023-04-30T17:20:20.881Z,100452.72
2023-04-30T17:22:49.319Z,100447.25
2023-04-30T17:25:17.672Z,100447.97
2023-04-30T17:27:46.108Z,100439.91
2023-04-30T17:30:15.026Z,100445.25
2023-04-30T17:32:46.563Z,100441.88
2023-04-30T17:35:16.362Z,100452.19
2023-04-30T17:37:44.724Z,100447.09
2023-04-30T17:40:13.820Z,100454.66
2023-04-30T17:42:42.262Z,100451.84
2023-04-30T17:45:13.946Z,100449.16
2023-04-30T17:47:42.380Z,100450.81
2023-04-30T17:50:11.314Z,100451.72
2023-04-30T17:52:41.336Z,100448.38
2023-04-30T17:55:10.485Z,100446.59
2023-04-30T17:57:39.064Z,100450.31
2023-04-30T18:00:09.559Z,100446.78
2023-04-30T18:02:44.835Z,100443.44
2023-04-30T18:05:13.479Z,100436.78
2023-04-30T18:07:43.304Z,100440.72
2023-04-30T18:10:12.250Z,100437.34
2023-04-30T18:12:42.011Z,100443.56
2023-04-30T18:15:13.157Z,100446.25
2023-04-30T18:17:42.305Z,100455.72
2023-04-30T18:20:12.742Z,100447.09
2023-04-30T18:22:43.710Z,100447.28
2023-04-30T18:25:14.134Z,100448.69
2023-04-30T18:27:42.509Z,100453.44
2023-04-30T18:30:12.733Z,100440.34
2023-04-30T18:32:44.236Z,100435.53
2023-04-30T18:35:12.679Z,100439.00
2023-04-30T18:37:42.351Z,100442.94
2023-04-30T18:40:11.912Z,100435.09
2023-04-30T18:42:40.256Z,100449.31
2023-04-30T18:45:11.528Z,100442.31
2023-04-30T18:47:40.045Z,100453.44
2023-04-30T18:50:13.636Z,100442.19
2023-04-30T18:52:43.628Z,100450.22
2023-04-30T18:55:13.953Z,100458.66
2023-04-30T18:57:43.431Z,100449.91
2023-04-30T19:00:14.690Z,100447.09
2023-04-30T19:02:44.318Z,100441.16
2023-04-30T19:05:12.836Z,100453.94
2023-04-30T19:07:42.732Z,100456.81
2023-04-30T19:10:11.787Z,100458.88
2023-04-30T19:12:40.592Z,100453.13
2023-04-30T19:15:11.648Z,100453.59
2023-04-30T19:17:40.632Z,100448.56
2023-04-30T19:20:10.396Z,100462.88
2023-04-30T19:22:39.254Z,100458.25
2023-04-30T19:25:10.949Z,100464.81
2023-04-30T19:27:39.581Z,100460.38
2023-04-30T19:30:09.851Z,100445.69
2023-04-30T19:32:38.361Z,100464.09
2023-04-30T19:35:08.242Z,100462.25
2023-04-30T19:37:37.643Z,100470.22
2023-04-30T19:40:11.953Z,100478.66
2023-04-30T19:42:40.955Z,100474.78
2023-04-30T19:45:11.561Z,100476.44
2023-04-30T19:47:40.109Z,100478.06
2023-04-30T19:50:10.589Z,100479.91
2023-04-30T19:52:39.080Z,100479.72
2023-04-30T19:55:09.882Z,100474.84
2023-04-30T19:57:38.462Z,100478.72
2023-04-30T20:00:08.759Z,100478.38
2023-04-30T20:02:37.252Z,100482.91
2023-04-30T20:05:07.359Z,100477.56
2023-04-30T20:07:35.925Z,100470.06
2023-04-30T20:10:04.544Z,100476.19
2023-04-30T20:12:34.367Z,100476.41
2023-04-30T20:15:03.535Z,100479.44
2023-04-30T20:17:33.998Z,100471.09
2023-04-30T20:20:02.685Z,100479.28
2023-04-30T20:22:31.244Z,100485.84
2023-04-30T20:25:02.569Z,100484.44
2023-04-30T20:27:30.965Z,100487.50
2023-04-30T20:30:00.896Z,100482.81
2023-04-30T20:32:29.318Z,100490.38
2023-04-30T20:34:58.247Z,100487.50
2023-04-30T20:37:26.583Z,100487.47
2023-04-30T20:39:55.393Z,100483.22
2023-04-30T20:42:23.909Z,100484.63
2023-04-30T20:44:52.249Z,100483.19
2023-04-30T20:47:22.143Z,100485.47
2023-04-30T20:49:51.284Z,100482.59
2023-04-30T20:52:20.188Z,100476.06
2023-04-30T20:54:50.084Z,100479.13
2023-04-30T20:57:18.471Z,100483.81
2023-04-30T20:59:46.917Z,100486.03
2023-04-30T21:02:15.260Z,100476.25
2023-04-30T21:04:45.073Z,100480.31
2023-04-30T21:07:13.453Z,100483.78
2023-04-30T21:09:41.866Z,100480.72
2023-04-30T21:12:11.727Z,100485.41
2023-04-30T21:14:40.176Z,100488.47
2023-04-30T21:17:08.797Z,100490.28
2023-04-30T21:19:37.444Z,100481.94
2023-04-30T21:22:07.251Z,100486.84
2023-04-30T21:24:35.674Z,100480.06
2023-04-30T21:27:04.249Z,100489.06
2023-04-30T21:29:32.587Z,100488.59
2023-04-30T21:32:00.991Z,100489.22
2023-04-30T21:34:32.416Z,100483.50
2023-04-30T21:37:00.981Z,100486.78
2023-04-30T21:39:31.528Z,100490.47
2023-04-30T21:42:00.007Z,100485.94
2023-04-30T21:44:32.524Z,100484.13
2023-04-30T21:47:01.139Z,100476.97
2023-04-30T21:49:29.484Z,100491.31
2023-04-30T21:51:58.395Z,100487.00
2023-04-30T21:54:26.837Z,100480.84
2023-04-30T21:56:56.586Z,100484.50
2023-04-30T21:59:25.096Z,100481.00
2023-04-30T22:01:53.612Z,100480.84
2023-04-30T22:04:25.403Z,100482.44
2023-04-30T22:06:54.434Z,100481.19
2023-04-30T22:09:23.697Z,100484.44
2023-04-30T22:11:52.224Z,100477.13
2023-04-30T22:14:21.931Z,100481.34
2023-04-30T22:16:50.392Z,100481.41
2023-04-30T22:19:18.867Z,100483.84
2023-04-30T22:21:47.229Z,100478.56
2023-04-30T22:24:16.287Z,100479.53
2023-04-30T22:26:44.767Z,100484.00
2023-04-30T22:29:13.189Z,100484.22
2023-04-30T22:31:42.965Z,100484.00
2023-04-30T22:34:12.509Z,100481.34
2023-04-30T22:36:40.841Z,100480.75
2023-04-30T22:39:10.025Z,100474.41
2023-04-30T22:41:38.868Z,100472.78
2023-04-30T22:44:07.334Z,100468.31
2023-04-30T22:46:36.863Z,100468.28
2023-04-30T22:49:07.626Z,100468.63
2023-04-30T22:51:37.571Z,100464.53
2023-04-30T22:54:06.111Z,100458.03
2023-04-30T22:56:34.536Z,100459.47
2023-04-30T22:59:03.373Z,100463.94
2023-04-30T23:01:31.811Z,100469.84
2023-04-30T23:04:00.384Z,100464.72
2023-04-30T23:06:31.335Z,100451.25
2023-04-30T23:08:59.850Z,100454.31
2023-04-30T23:11:28.269Z,100457.19
2023-04-30T23:13:57.219Z,100445.78
2023-04-30T23:16:25.748Z,100457.63
2023-04-30T23:18:54.288Z,100448.59
2023-04-30T23:21:22.972Z,100434.56
2023-04-30T23:23:52.929Z,100449.22
2023-04-30T23:26:21.327Z,100436.94
2023-04-30T23:28:49.712Z,100444.31
2023-04-30T23:31:18.266Z,100451.03
2023-04-30T23:33:46.778Z,100439.41
2023-04-30T23:36:15.210Z,100443.28
2023-04-30T23:38:43.983Z,100435.34
2023-04-30T23:41:14.048Z,100438.56
2023-04-30T23:43:42.566Z,100439.41
2023-04-30T23:46:11.012Z,100429.38
2023-04-30T23:48:39.725Z,100427.75
2023-04-30T23:51:08.967Z,100427.75
2023-04-30T23:53:37.389Z,100429.16
2023-04-30T23:56:06.554Z,100416.75
2023-04-30T23:58:36.483Z,100420.16
